Knight Air Virtual Airline

KNIGHT AIR knights of the virtual airways




 METAR AND TAF INFORMATION
METAR FOR EGTE
ADDS - METARS form results

(0032 UTC 17 December 2018)
Data provider http://aviationweather.gov/metar/data/
 
Forecast for: EGTE (EXETER AIRPORT , GB)
Text: TAF EGTE 162259Z 1700/1702 28004KT 9999 FEW030
Forecast period: 0000 to 0200 UTC 17 December 2018
Forecast type: FROM: standard forecast or significant change
Winds: from the W (280 degrees) at 5 MPH (4 knots; 2.1 m/s)
Visibility: 6 or more miles 10+ km)
Ceiling: at least 12,000 feet AGL
Clouds: few clouds at 3000 feet AGL
Weather: no significant weather forecast for this period

 AIRPORT MAP

 RUNWAY INFORMATION
Runway 08 Runway length 6834 ft Runway width 151 ft
Runway elevation 99 ft Runway displaced threshold 33 ft Runway heading 76
Runway 26 Runway length 6834 ft Runway width 151 ft
Runway elevation 102 ft Runway displaced threshold 117 ft Runway heading 256
Runway 13 Runway length 4393 ft Runway width 151 ft
Runway elevation 76 ft Runway displaced threshold 446 ft Runway heading 120
Runway 31 Runway length 4393 ft Runway width 151 ft
Runway elevation 98 ft Runway displaced threshold 0 ft Runway heading 300

 AIRPORT FREQUENCIES
Type APP Name APP Frequency 128.975 MHZ
Type ATIS Name ATIS Frequency 119.325 MHZ
Type Radar Name EXETER Rad Frequency 123.57 MHZ
Type TWR Name TWR Frequency 119.8 MHZ

 AIRPORT NEAR NAVIGATION AIDS